Main page
METAR-TAF:

METAR-TAF

Airports :

Yakutsk, Russia

Yakutsk Airport

latitude: 62-01N, longitude: 129-43E, elevation: 103 m

Current weather observation

The report was made 42 minutes ago, at 03:00 UTC
Wind 4 kt from the West
Temperature 6°C
Humidity 65%
Pressure 1010 hPa
Visibility 10 km or more
Broken clouds at a height of 3000 ft, Cumulonimbus.

METAR: UEEE 200300Z 27002MPS 9999 BKN030CB 06/00 Q1010 R23L/09//60 NOSIG RMK QFE749

Time: 12:42 (03:42 UTC)

Forecast

The report was made 1 hour and 42 minutes ago, at 02:00 UTC
Forecast valid from 20 at 03 UTC to 21 at 09 UTC
Wind 6 kt from the West/Northwest with gusts up to 16 kt
Visibility 10 km or more
Broken clouds at a height of 2000 ft, Cumulonimbus.
Overcast at a height of 7000 ft

TAF: UEEE 200200Z 2003/2109 30003G08MPS 9999 BKN020CB OVC070

Weather observations and forecasts of more than 4000 airports (METAR and TAF reports).

The available stations are represented by yellow and red dots on the map.

Hover mouse over dot to see the name of the station.

Then click to see weather observations and forecasts.

To change the map : click on the green buttons with a black cross to zoom in, on the green button with a dash to zoom out, or on the green arrows for adjacent maps.


METAR-TAF: